Time;durP1;ratioP1;P1;durP2;ratioP2;P2;SDS_P1;SDS_P2;PMS_P1;PMS_P2;Temp;Humidity;BMP_temperature;BMP_pressure;BME280_temperature;BME280_humidity;BME280_pressure;Samples;Min_cycle;Max_cycle;Signal;HPM_P1;HPM_P2
2022/06/06 00:00:44;;;;;;;12.73;4.57;;;;;;;;;;4992171;28;20054;-63
2022/06/06 00:03:11;;;;;;;10.30;5.80;;;;;;;;;;4982103;28;20062;-63
2022/06/06 00:05:41;;;;;;;8.00;4.45;;;;;;;;;;4972932;28;20125;-64
2022/06/06 00:08:08;;;;;;;10.07;5.03;;;;;;;;;;4972595;28;20052;-64
2022/06/06 00:10:35;;;;;;;10.38;5.35;;;;;;;;;;4972761;28;20051;-62
2022/06/06 00:13:03;;;;;;;10.02;4.90;;;;;;;;;;4972855;28;20464;-63
2022/06/06 00:15:30;;;;;;;8.48;4.50;;;;;;;;;;4973675;28;20625;-64
2022/06/06 00:17:57;;;;;;;10.52;5.00;;;;;;;;;;4976158;28;20050;-63
2022/06/06 00:20:24;;;;;;;8.55;5.53;;;;;;;;;;4976120;28;20093;-64
2022/06/06 00:22:51;;;;;;;14.15;5.32;;;;;;;;;;4976053;28;20047;-64
2022/06/06 00:25:18;;;;;;;8.85;5.13;;;;;;;;;;4975936;28;20051;-63
2022/06/06 00:27:45;;;;;;;10.75;5.53;;;;;;;;;;4976292;28;20047;-63
2022/06/06 00:30:13;;;;;;;8.02;5.32;;;;;;;;;;4975979;28;20055;-63
2022/06/06 00:35:24;;;;;;;9.15;5.50;;;;;;;;;;4975984;28;20061;-63
2022/06/06 00:37:51;;;;;;;10.40;4.47;;;;;;;;;;4975753;28;20055;-64
2022/06/06 00:40:22;;;;;;;12.15;4.88;;;;;;;;;;4975765;28;20055;-64
2022/06/06 00:42:48;;;;;;;8.73;5.00;;;;;;;;;;4975693;28;20424;-62
2022/06/06 00:45:30;;;;;;;8.07;4.43;;;;;;;;;;4975591;28;20051;-63
2022/06/06 00:48:05;;;;;;;11.60;5.20;;;;;;;;;;4975644;28;20059;-63
2022/06/06 00:50:40;;;;;;;10.60;4.95;;;;;;;;;;4975682;28;20086;-64
2022/06/06 00:53:08;;;;;;;10.82;5.20;;;;;;;;;;4975554;28;20472;-63
2022/06/06 00:55:40;;;;;;;9.18;4.82;;;;;;;;;;4975628;28;20105;-63
2022/06/06 00:58:13;;;;;;;7.65;4.95;;;;;;;;;;4989115;28;20464;-63
2022/06/06 01:00:43;;;;;;;13.38;5.40;;;;;;;;;;4994855;28;20046;-64
2022/06/06 01:03:13;;;;;;;8.88;4.78;;;;;;;;;;4994719;28;20058;-63
2022/06/06 01:05:41;;;;;;;8.48;4.90;;;;;;;;;;4995121;28;20495;-64
2022/06/06 01:08:10;;;;;;;10.57;4.78;;;;;;;;;;4994681;28;20498;-64
2022/06/06 01:10:37;;;;;;;9.77;5.18;;;;;;;;;;4994630;28;20051;-64
2022/06/06 01:13:08;;;;;;;8.57;4.55;;;;;;;;;;4994528;28;20112;-64
2022/06/06 01:15:47;;;;;;;8.75;4.30;;;;;;;;;;4994633;28;20051;-64
2022/06/06 01:18:21;;;;;;;10.00;5.60;;;;;;;;;;4994437;28;20060;-63
2022/06/06 01:21:15;;;;;;;8.80;5.50;;;;;;;;;;4994460;28;20052;-64
2022/06/06 01:24:02;;;;;;;9.73;5.32;;;;;;;;;;4994256;28;20050;-64
2022/06/06 01:27:03;;;;;;;9.70;5.00;;;;;;;;;;4993802;28;20483;-64
2022/06/06 01:29:36;;;;;;;8.20;4.93;;;;;;;;;;4962165;28;20053;-64
2022/06/06 01:32:06;;;;;;;9.27;4.82;;;;;;;;;;4994107;28;20093;-63
2022/06/06 01:34:36;;;;;;;9.32;5.50;;;;;;;;;;4975792;28;20051;-63
2022/06/06 01:37:04;;;;;;;9.90;5.03;;;;;;;;;;4975302;28;20054;-63
2022/06/06 01:39:33;;;;;;;11.57;5.28;;;;;;;;;;4975236;28;20145;-63
2022/06/06 01:42:07;;;;;;;11.63;5.35;;;;;;;;;;4974660;28;20047;-64
2022/06/06 01:44:41;;;;;;;10.20;5.47;;;;;;;;;;4992369;28;20050;-64
2022/06/06 01:47:11;;;;;;;10.20;4.95;;;;;;;;;;4993998;28;20065;-63
2022/06/06 01:49:39;;;;;;;10.18;5.43;;;;;;;;;;4993909;28;20065;-63
2022/06/06 01:52:09;;;;;;;9.52;5.25;;;;;;;;;;4994053;28;20042;-63
2022/06/06 01:54:36;;;;;;;9.30;4.73;;;;;;;;;;4993906;28;20058;-63
2022/06/06 01:57:05;;;;;;;11.57;5.45;;;;;;;;;;4993898;28;20247;-64
2022/06/06 01:59:33;;;;;;;9.77;5.53;;;;;;;;;;4993584;28;20050;-63
2022/06/06 02:02:01;;;;;;;12.75;6.00;;;;;;;;;;4993651;28;20459;-63
2022/06/06 02:04:28;;;;;;;10.00;5.38;;;;;;;;;;4989096;28;20550;-63
2022/06/06 02:06:54;;;;;;;13.02;5.55;;;;;;;;;;4974267;28;20051;-63
2022/06/06 02:09:22;;;;;;;10.05;5.43;;;;;;;;;;4974155;28;20050;-63
2022/06/06 02:11:49;;;;;;;10.75;5.68;;;;;;;;;;4974062;28;20054;-64
2022/06/06 02:14:15;;;;;;;10.95;5.45;;;;;;;;;;4974048;28;20101;-62
2022/06/06 02:16:42;;;;;;;7.72;4.93;;;;;;;;;;4974279;28;20460;-64
2022/06/06 02:19:11;;;;;;;9.55;5.75;;;;;;;;;;4973980;28;20097;-63
2022/06/06 02:21:38;;;;;;;10.82;5.45;;;;;;;;;;4974051;28;20154;-63
2022/06/06 02:24:06;;;;;;;13.77;6.28;;;;;;;;;;4973884;28;20496;-64
2022/06/06 02:26:33;;;;;;;8.77;5.47;;;;;;;;;;4973788;28;20140;-63
2022/06/06 02:29:00;;;;;;;8.55;5.53;;;;;;;;;;4973686;28;20043;-64
2022/06/06 02:31:27;;;;;;;12.05;6.80;;;;;;;;;;4974064;28;20061;-64
2022/06/06 02:33:55;;;;;;;11.70;7.03;;;;;;;;;;4973779;28;20109;-63
2022/06/06 02:36:24;;;;;;;11.85;6.75;;;;;;;;;;4974230;28;20488;-64
2022/06/06 02:38:51;;;;;;;10.88;6.88;;;;;;;;;;4973406;28;20121;-62
2022/06/06 02:41:17;;;;;;;11.43;7.45;;;;;;;;;;4973578;28;20477;-63
2022/06/06 02:43:45;;;;;;;12.38;7.45;;;;;;;;;;4973491;28;20077;-64
2022/06/06 02:46:13;;;;;;;13.82;6.80;;;;;;;;;;4973671;28;20062;-63
2022/06/06 02:48:40;;;;;;;12.20;7.60;;;;;;;;;;4981120;28;20066;-64
2022/06/06 02:51:06;;;;;;;11.63;6.63;;;;;;;;;;4992987;28;20307;-64
2022/06/06 02:53:35;;;;;;;13.73;7.05;;;;;;;;;;4975166;28;20051;-63
2022/06/06 02:56:02;;;;;;;13.05;7.25;;;;;;;;;;4981559;28;20046;-63
2022/06/06 02:58:29;;;;;;;12.10;6.93;;;;;;;;;;4992679;28;20054;-63
2022/06/06 03:01:00;;;;;;;12.73;6.35;;;;;;;;;;4992905;28;20096;-64
2022/06/06 03:03:28;;;;;;;10.75;6.10;;;;;;;;;;4976801;28;20093;-62
2022/06/06 03:06:02;;;;;;;11.82;8.73;;;;;;;;;;4973506;28;20338;-62
2022/06/06 03:08:46;;;;;;;13.48;9.02;;;;;;;;;;4973222;28;20137;-63
2022/06/06 03:11:29;;;;;;;14.88;8.05;;;;;;;;;;4973278;28;20090;-63
2022/06/06 03:14:15;;;;;;;16.02;7.50;;;;;;;;;;4973135;28;20463;-63
2022/06/06 03:22:55;;;;;;;33.73;15.10;;;;;;;;;;4973165;28;20101;-63
2022/06/06 03:25:31;;;;;;;14.55;7.82;;;;;;;;;;4972919;28;20058;-63
2022/06/06 03:28:06;;;;;;;15.82;7.13;;;;;;;;;;4996992;23;20054;-60
2022/06/06 03:30:42;;;;;;;15.48;7.28;;;;;;;;;;4991906;28;20053;-61
2022/06/06 03:33:22;;;;;;;11.35;6.68;;;;;;;;;;4973289;28;20416;-62
2022/06/06 03:35:58;;;;;;;12.52;6.93;;;;;;;;;;4972981;28;20055;-61
2022/06/06 03:38:33;;;;;;;12.25;6.22;;;;;;;;;;4973149;28;20047;-60
2022/06/06 03:41:09;;;;;;;12.15;5.93;;;;;;;;;;4972724;28;20082;-61
2022/06/06 03:43:45;;;;;;;10.25;6.20;;;;;;;;;;4973194;28;20058;-61
2022/06/06 03:46:22;;;;;;;11.43;6.10;;;;;;;;;;4972931;28;20046;-57
2022/06/06 03:49:02;;;;;;;11.68;6.60;;;;;;;;;;4972817;28;20106;-61
2022/06/06 03:51:37;;;;;;;11.18;6.85;;;;;;;;;;4975449;28;20055;-60
2022/06/06 03:54:20;;;;;;;10.80;6.97;;;;;;;;;;4977049;28;20488;-62
2022/06/06 03:57:03;;;;;;;12.63;6.88;;;;;;;;;;4977146;28;20047;-61
2022/06/06 03:59:30;;;;;;;10.80;5.82;;;;;;;;;;4976303;28;20054;-61
2022/06/06 04:02:01;;;;;;;11.45;6.15;;;;;;;;;;4976379;28;20050;-60
2022/06/06 04:04:30;;;;;;;11.10;6.13;;;;;;;;;;4976738;28;20105;-62
2022/06/06 04:06:58;;;;;;;10.43;5.88;;;;;;;;;;4976607;28;20047;-62
2022/06/06 04:09:25;;;;;;;12.82;6.53;;;;;;;;;;4975754;28;20085;-61
2022/06/06 04:12:02;;;;;;;11.20;5.65;;;;;;;;;;4976589;28;20047;-62
2022/06/06 04:14:42;;;;;;;11.63;5.75;;;;;;;;;;4976555;28;20054;-62
2022/06/06 04:17:31;;;;;;;12.57;6.45;;;;;;;;;;4976309;28;20059;-63
2022/06/06 04:20:10;;;;;;;11.45;6.03;;;;;;;;;;4961466;28;20054;-62
2022/06/06 04:22:49;;;;;;;14.05;6.03;;;;;;;;;;4976325;28;20051;-63
2022/06/06 04:25:24;;;;;;;12.13;6.30;;;;;;;;;;4975873;28;20447;-64
2022/06/06 04:27:59;;;;;;;11.10;6.95;;;;;;;;;;4975965;28;20050;-63
2022/06/06 04:30:35;;;;;;;14.35;7.25;;;;;;;;;;4975570;28;20123;-62
2022/06/06 04:33:12;;;;;;;13.20;7.35;;;;;;;;;;4976233;28;20054;-62
2022/06/06 04:35:47;;;;;;;8.88;5.78;;;;;;;;;;4975846;28;20401;-61
2022/06/06 04:38:24;;;;;;;12.15;6.10;;;;;;;;;;4976134;28;20460;-62
2022/06/06 04:40:54;;;;;;;10.15;5.63;;;;;;;;;;4975654;28;20447;-62
2022/06/06 04:43:29;;;;;;;10.57;6.60;;;;;;;;;;4975892;28;20051;-62
2022/06/06 04:46:04;;;;;;;9.77;5.15;;;;;;;;;;4975460;28;20050;-62
2022/06/06 04:48:33;;;;;;;9.77;5.80;;;;;;;;;;4975904;28;20055;-62
2022/06/06 04:51:00;;;;;;;11.02;6.10;;;;;;;;;;4975171;28;20055;-62
2022/06/06 04:53:30;;;;;;;8.52;5.05;;;;;;;;;;4975383;28;20097;-62
2022/06/06 04:56:00;;;;;;;9.02;5.25;;;;;;;;;;4975318;28;20061;-60
2022/06/06 04:58:32;;;;;;;10.53;5.43;;;;;;;;;;4975413;28;20051;-62
2022/06/06 05:01:01;;;;;;;7.72;4.88;;;;;;;;;;4974535;28;20299;-62
2022/06/06 05:03:28;;;;;;;7.82;5.00;;;;;;;;;;4975037;28;20468;-62
2022/06/06 05:06:17;;;;;;;8.75;4.97;;;;;;;;;;4975250;28;20054;-62
2022/06/06 05:09:00;;;;;;;11.40;6.28;;;;;;;;;;4956064;28;20051;-61
2022/06/06 05:11:39;;;;;;;8.00;5.88;;;;;;;;;;4970190;28;20053;-62
2022/06/06 05:14:21;;;;;;;9.55;6.10;;;;;;;;;;4975213;28;20058;-62
2022/06/06 05:17:05;;;;;;;10.98;5.65;;;;;;;;;;4974809;28;20058;-62
2022/06/06 05:19:45;;;;;;;15.73;7.10;;;;;;;;;;4955523;28;20051;-61
2022/06/06 05:22:38;;;;;;;9.63;5.97;;;;;;;;;;4972802;28;20054;-62
2022/06/06 05:25:17;;;;;;;10.93;6.35;;;;;;;;;;4975012;28;20047;-62
2022/06/06 05:28:02;;;;;;;15.43;6.55;;;;;;;;;;4974985;28;20043;-62
2022/06/06 05:30:38;;;;;;;9.93;6.25;;;;;;;;;;4974525;28;20412;-62
2022/06/06 05:33:14;;;;;;;11.65;5.88;;;;;;;;;;4975276;28;20055;-62
2022/06/06 05:35:57;;;;;;;11.57;6.60;;;;;;;;;;4975161;28;20063;-61
2022/06/06 05:38:39;;;;;;;9.80;5.63;;;;;;;;;;4974780;28;20074;-61
2022/06/06 05:41:14;;;;;;;8.95;5.40;;;;;;;;;;4974482;28;20543;-61
2022/06/06 05:43:49;;;;;;;10.80;6.45;;;;;;;;;;4974689;28;20047;-62
2022/06/06 05:46:29;;;;;;;8.35;5.57;;;;;;;;;;4974356;28;20055;-62
2022/06/06 05:49:10;;;;;;;10.25;5.95;;;;;;;;;;4974663;28;20047;-60
2022/06/06 05:51:47;;;;;;;10.30;5.53;;;;;;;;;;4974130;28;20906;-60
2022/06/06 05:54:39;;;;;;;9.85;5.78;;;;;;;;;;4974806;28;20117;-61
2022/06/06 05:57:23;;;;;;;10.48;5.18;;;;;;;;;;4974674;28;20472;-61
2022/06/06 06:00:05;;;;;;;9.27;5.20;;;;;;;;;;4970746;28;20051;-61
2022/06/06 06:02:54;;;;;;;11.68;5.65;;;;;;;;;;4974408;28;20074;-59
2022/06/06 06:05:33;;;;;;;11.07;5.53;;;;;;;;;;4974760;28;20087;-61
2022/06/06 06:08:09;;;;;;;11.45;5.32;;;;;;;;;;4974429;28;20109;-60
2022/06/06 06:10:46;;;;;;;10.98;6.00;;;;;;;;;;4974664;28;20051;-61
2022/06/06 06:13:34;;;;;;;12.07;6.35;;;;;;;;;;4974698;28;20133;-60
2022/06/06 06:16:04;;;;;;;8.25;5.68;;;;;;;;;;4974277;28;20054;-61
2022/06/06 06:18:41;;;;;;;11.43;5.85;;;;;;;;;;4973851;28;20046;-61
2022/06/06 06:21:11;;;;;;;10.18;5.90;;;;;;;;;;4973863;28;20057;-60
2022/06/06 06:23:43;;;;;;;8.48;6.18;;;;;;;;;;4973935;28;20129;-59
2022/06/06 06:26:11;;;;;;;10.00;5.63;;;;;;;;;;4955206;28;20140;-60
2022/06/06 06:28:38;;;;;;;11.82;6.25;;;;;;;;;;4968754;28;20103;-62
2022/06/06 06:31:20;;;;;;;11.23;6.38;;;;;;;;;;4973508;28;20050;-62
2022/06/06 06:34:18;;;;;;;9.55;5.65;;;;;;;;;;4973157;28;20102;-60
2022/06/06 06:36:47;;;;;;;11.93;6.78;;;;;;;;;;4974063;28;20523;-60
2022/06/06 06:39:33;;;;;;;12.65;5.93;;;;;;;;;;4974677;28;20047;-65
2022/06/06 06:42:21;;;;;;;10.38;6.35;;;;;;;;;;4974079;28;20054;-61
2022/06/06 06:44:54;;;;;;;19.65;6.65;;;;;;;;;;4973599;28;20047;-61
2022/06/06 06:47:29;;;;;;;11.95;6.53;;;;;;;;;;4974325;28;20081;-63
2022/06/06 06:50:08;;;;;;;12.88;6.00;;;;;;;;;;4974296;28;20134;-61
2022/06/06 06:52:50;;;;;;;12.45;6.20;;;;;;;;;;4974498;28;20574;-61
2022/06/06 06:55:25;;;;;;;10.65;6.13;;;;;;;;;;4974798;28;20053;-60
2022/06/06 06:58:17;;;;;;;9.48;6.10;;;;;;;;;;4973679;28;20050;-61
2022/06/06 07:00:50;;;;;;;9.32;6.45;;;;;;;;;;4957421;28;20058;-61
2022/06/06 07:09:19;;;;;;;10.40;6.80;;;;;;;;;;4973531;28;20428;-61
2022/06/06 07:12:02;;;;;;;12.68;8.13;;;;;;;;;;4973774;28;20086;-60
2022/06/06 07:14:42;;;;;;;10.85;6.35;;;;;;;;;;4973447;28;20066;-60
2022/06/06 07:17:11;;;;;;;11.60;7.05;;;;;;;;;;4973755;28;20463;-61
2022/06/06 07:19:42;;;;;;;9.43;5.90;;;;;;;;;;4973967;28;20050;-61
2022/06/06 07:22:10;;;;;;;11.73;6.82;;;;;;;;;;4973437;28;20051;-60
2022/06/06 07:24:39;;;;;;;11.05;6.95;;;;;;;;;;4973635;28;20076;-58
2022/06/06 07:27:10;;;;;;;9.75;6.55;;;;;;;;;;4977197;28;20050;-61
2022/06/06 07:29:37;;;;;;;12.50;6.65;;;;;;;;;;4977544;28;20508;-60
2022/06/06 07:32:29;;;;;;;12.35;7.28;;;;;;;;;;4977246;28;20050;-60
2022/06/06 07:35:03;;;;;;;9.85;6.32;;;;;;;;;;4977180;28;20054;-60
2022/06/06 07:37:52;;;;;;;10.15;6.28;;;;;;;;;;4976685;28;20127;-61
2022/06/06 07:40:30;;;;;;;10.20;6.82;;;;;;;;;;4977273;28;20046;-61
2022/06/06 07:43:16;;;;;;;9.77;6.43;;;;;;;;;;4977025;28;20043;-61
2022/06/06 07:45:47;;;;;;;10.32;5.82;;;;;;;;;;4976874;28;20500;-62
2022/06/06 07:48:42;;;;;;;11.45;6.60;;;;;;;;;;4976855;28;20054;-61
2022/06/06 07:51:14;;;;;;;13.48;7.13;;;;;;;;;;4976780;28;20053;-60
2022/06/06 07:53:52;;;;;;;18.58;6.97;;;;;;;;;;4976621;28;20059;-59
2022/06/06 07:56:27;;;;;;;13.65;7.22;;;;;;;;;;4976757;28;20109;-61
2022/06/06 07:59:12;;;;;;;14.93;9.57;;;;;;;;;;4976650;28;20471;-58
2022/06/06 08:01:47;;;;;;;12.13;7.68;;;;;;;;;;4976763;28;20078;-60
2022/06/06 08:04:25;;;;;;;13.60;7.88;;;;;;;;;;4976805;28;20338;-60
2022/06/06 08:07:01;;;;;;;13.48;7.43;;;;;;;;;;4976398;28;20054;-61
2022/06/06 08:09:43;;;;;;;12.95;7.35;;;;;;;;;;4976671;28;20282;-60
2022/06/06 08:12:29;;;;;;;12.50;7.80;;;;;;;;;;4976683;28;20058;-58
2022/06/06 08:15:08;;;;;;;10.00;6.90;;;;;;;;;;4976473;28;20051;-59
2022/06/06 08:17:49;;;;;;;16.95;9.10;;;;;;;;;;4976039;28;20057;-59
2022/06/06 08:20:22;;;;;;;13.68;8.02;;;;;;;;;;4976637;28;20481;-59
2022/06/06 08:22:53;;;;;;;13.15;8.18;;;;;;;;;;4976289;28;20086;-59
2022/06/06 08:25:22;;;;;;;14.25;8.10;;;;;;;;;;4976150;28;20050;-60
2022/06/06 08:27:52;;;;;;;14.77;8.10;;;;;;;;;;4976006;28;20043;-59
2022/06/06 08:30:21;;;;;;;15.13;8.20;;;;;;;;;;4976081;28;20051;-59
2022/06/06 08:32:48;;;;;;;11.32;7.30;;;;;;;;;;4976085;28;20051;-60
2022/06/06 08:35:16;;;;;;;11.90;8.07;;;;;;;;;;4975952;28;20097;-55
2022/06/06 08:38:13;;;;;;;14.57;8.15;;;;;;;;;;4975467;28;20043;-57
2022/06/06 08:41:14;;;;;;;12.43;7.35;;;;;;;;;;4976164;28;20489;-58
2022/06/06 08:44:00;;;;;;;11.48;7.40;;;;;;;;;;4975366;28;20054;-59
2022/06/06 08:46:45;;;;;;;11.32;7.72;;;;;;;;;;4976070;28;20582;-60
2022/06/06 08:52:18;;;;;;;16.10;8.93;;;;;;;;;;4975655;28;20065;-58
2022/06/06 08:55:23;;;;;;;16.15;7.78;;;;;;;;;;4975669;28;20051;-59
2022/06/06 09:00:54;;;;;;;12.05;8.43;;;;;;;;;;5089531;27;20405;-56
2022/06/06 09:04:10;;;;;;;14.02;9.30;;;;;;;;;;5089619;28;20064;-59
2022/06/06 09:07:06;;;;;;;14.55;7.03;;;;;;;;;;5089742;28;20051;-59
2022/06/06 09:10:04;;;;;;;11.18;8.43;;;;;;;;;;5089560;28;20055;-58
2022/06/06 09:13:24;;;;;;;10.57;6.88;;;;;;;;;;5089170;28;20129;-60
2022/06/06 09:16:27;;;;;;;13.43;7.53;;;;;;;;;;5089484;28;20483;-57
2022/06/06 09:19:35;;;;;;;12.07;7.68;;;;;;;;;;5089202;28;20049;-57
2022/06/06 09:22:32;;;;;;;10.73;7.07;;;;;;;;;;5089337;28;20044;-59
2022/06/06 09:25:34;;;;;;;11.65;7.90;;;;;;;;;;5089377;28;20063;-59
2022/06/06 09:28:43;;;;;;;11.13;7.40;;;;;;;;;;5089290;28;20390;-58
2022/06/06 09:31:49;;;;;;;16.35;8.25;;;;;;;;;;5089328;28;20048;-62
2022/06/06 09:34:40;;;;;;;11.50;7.28;;;;;;;;;;5068589;28;20063;-63
2022/06/06 09:37:29;;;;;;;11.45;7.32;;;;;;;;;;5068933;28;20494;-62
2022/06/06 09:39:58;;;;;;;12.55;7.40;;;;;;;;;;5068379;28;20288;-63
2022/06/06 09:42:38;;;;;;;12.55;7.65;;;;;;;;;;5068330;28;20453;-63
2022/06/06 09:45:30;;;;;;;12.77;8.07;;;;;;;;;;5068302;28;20045;-63
2022/06/06 09:48:44;;;;;;;13.05;8.50;;;;;;;;;;5040286;28;20394;-63
2022/06/06 09:51:44;;;;;;;14.13;8.68;;;;;;;;;;5061631;28;20045;-62
2022/06/06 10:01:22;;;;;;;17.52;8.82;;;;;;;;;;5067753;28;20136;-63
2022/06/06 10:04:18;;;;;;;12.85;7.13;;;;;;;;;;5068078;28;20106;-62
2022/06/06 10:07:15;;;;;;;12.32;8.43;;;;;;;;;;5058466;28;20359;-62
2022/06/06 10:10:08;;;;;;;13.48;7.82;;;;;;;;;;5035324;28;20053;-63
2022/06/06 10:13:10;;;;;;;11.50;7.57;;;;;;;;;;5055546;28;20506;-62
2022/06/06 10:15:49;;;;;;;8.55;6.97;;;;;;;;;;5055585;28;20506;-62
2022/06/06 10:18:56;;;;;;;13.93;7.28;;;;;;;;;;5054932;28;20056;-65
2022/06/06 10:21:59;;;;;;;13.60;7.00;;;;;;;;;;5054557;28;20053;-63
2022/06/06 10:25:02;;;;;;;10.90;6.63;;;;;;;;;;5054081;28;20052;-64
2022/06/06 10:27:40;;;;;;;12.38;6.97;;;;;;;;;;5054599;28;20058;-64
2022/06/06 10:30:13;;;;;;;11.10;6.43;;;;;;;;;;5054212;28;20064;-64
2022/06/06 10:33:18;;;;;;;11.98;7.03;;;;;;;;;;5054459;28;20103;-63
2022/06/06 10:36:14;;;;;;;12.43;7.22;;;;;;;;;;5054473;28;20059;-63
2022/06/06 10:39:09;;;;;;;12.55;7.68;;;;;;;;;;5054014;28;20056;-64
2022/06/06 10:42:14;;;;;;;10.35;6.50;;;;;;;;;;5053939;28;20064;-67
2022/06/06 10:45:11;;;;;;;9.88;7.03;;;;;;;;;;5054285;28;20044;-67
2022/06/06 10:47:59;;;;;;;20.98;8.85;;;;;;;;;;5054387;28;20056;-67
2022/06/06 10:50:34;;;;;;;14.55;8.00;;;;;;;;;;5054106;28;20091;-62
2022/06/06 10:53:24;;;;;;;16.95;7.97;;;;;;;;;;5053419;28;20045;-63
2022/06/06 10:56:18;;;;;;;;;;;;;;;;;;5054416;28;20057;-63
2022/06/06 10:59:13;;;;;;;12.77;7.10;;;;;;;;;;5053780;28;19924;-64
2022/06/06 11:02:18;;;;;;;11.07;7.22;;;;;;;;;;5053884;28;20067;-64
2022/06/06 11:05:22;;;;;;;10.93;7.00;;;;;;;;;;5053033;28;20049;-62
2022/06/06 11:08:21;;;;;;;10.52;7.30;;;;;;;;;;5057426;28;20045;-62
2022/06/06 11:11:25;;;;;;;11.63;7.80;;;;;;;;;;5053720;28;20049;-63
2022/06/06 11:14:01;;;;;;;13.43;8.40;;;;;;;;;;5053492;28;20076;-64
2022/06/06 11:17:13;;;;;;;19.92;10.25;;;;;;;;;;5053496;28;20041;-63
2022/06/06 11:20:22;;;;;;;11.57;7.38;;;;;;;;;;5052761;28;20076;-65
2022/06/06 11:22:56;;;;;;;14.55;9.57;;;;;;;;;;5053420;28;20049;-63
2022/06/06 11:25:24;;;;;;;10.65;7.22;;;;;;;;;;5053167;28;20045;-65
2022/06/06 11:28:20;;;;;;;14.00;8.50;;;;;;;;;;5053048;28;20055;-63
2022/06/06 11:31:10;;;;;;;11.73;7.18;;;;;;;;;;5058675;28;20052;-63
2022/06/06 11:34:00;;;;;;;;;;;;;;;;;;5069855;28;20052;-62
2022/06/06 11:37:00;;;;;;;;;;;;;;;;;;5071855;28;19924;-62
2022/06/06 11:39:53;;;;;;;12.85;7.28;;;;;;;;;;5010561;28;19937;-63
2022/06/06 11:42:36;;;;;;;14.85;7.70;;;;;;;;;;4998405;28;20435;-62
2022/06/06 11:45:40;;;;;;;14.88;9.48;;;;;;;;;;5039468;28;20053;-64
2022/06/06 11:48:30;;;;;;;17.52;9.45;;;;;;;;;;5062819;28;20128;-61
2022/06/06 11:51:30;;;;;;;21.70;10.27;;;;;;;;;;5059726;28;20123;-63
2022/06/06 11:54:30;;;;;;;28.80;12.82;;;;;;;;;;5062501;28;20525;-63
2022/06/06 11:57:41;;;;;;;18.38;12.55;;;;;;;;;;5053008;28;20056;-63
2022/06/06 12:00:22;;;;;;;16.50;10.10;;;;;;;;;;5070187;28;20041;-63
2022/06/06 12:03:17;;;;;;;15.18;9.57;;;;;;;;;;5066894;28;20132;-65
2022/06/06 12:06:12;;;;;;;13.65;7.90;;;;;;;;;;5063493;28;20051;-62
2022/06/06 12:09:03;;;;;;;14.20;8.00;;;;;;;;;;5068347;28;20063;-62
2022/06/06 12:12:14;;;;;;;12.43;7.75;;;;;;;;;;5057408;28;20095;-62
2022/06/06 12:14:58;;;;;;;13.05;7.30;;;;;;;;;;5066561;28;20044;-64
2022/06/06 12:17:43;;;;;;;16.50;10.25;;;;;;;;;;5071465;28;20413;-63
2022/06/06 12:21:07;;;;;;;13.13;8.43;;;;;;;;;;5070773;28;20048;-62
2022/06/06 12:23:48;;;;;;;10.15;6.75;;;;;;;;;;5028044;28;20103;-63
2022/06/06 12:26:34;;;;;;;10.20;6.22;;;;;;;;;;5050845;28;20045;-62
2022/06/06 12:29:37;;;;;;;16.77;11.27;;;;;;;;;;5050919;28;20307;-63
2022/06/06 12:32:27;;;;;;;12.02;7.38;;;;;;;;;;5051011;28;20435;-61
2022/06/06 12:35:03;;;;;;;14.73;7.20;;;;;;;;;;5052435;28;20048;-62
2022/06/06 12:37:38;;;;;;;10.77;7.18;;;;;;;;;;5060690;28;20114;-62
2022/06/06 12:40:14;;;;;;;9.18;6.80;;;;;;;;;;5050385;28;20055;-63
2022/06/06 12:42:54;;;;;;;10.95;7.18;;;;;;;;;;5050732;28;20140;-61
2022/06/06 12:45:53;;;;;;;12.63;7.15;;;;;;;;;;5054049;28;20040;-62
2022/06/06 12:49:05;;;;;;;9.90;7.10;;;;;;;;;;5070536;28;20153;-61
2022/06/06 12:51:46;;;;;;;9.43;6.32;;;;;;;;;;5063969;28;20062;-62
2022/06/06 12:55:09;;;;;;;9.15;7.22;;;;;;;;;;5050469;28;20045;-61
2022/06/06 12:57:28;;;;;;;10.13;7.18;;;;;;;;;;5076891;28;20045;-62
2022/06/06 13:00:03;;;;;;;10.70;7.68;;;;;;;;;;5070028;28;20049;-62
2022/06/06 13:02:47;;;;;;;12.05;8.07;;;;;;;;;;5070185;28;20056;-64
2022/06/06 13:05:37;;;;;;;12.48;7.20;;;;;;;;;;5064071;28;20045;-62
2022/06/06 13:08:29;;;;;;;15.13;8.50;;;;;;;;;;5050655;28;20414;-63
2022/06/06 13:11:10;;;;;;;11.38;7.57;;;;;;;;;;5049931;28;20053;-64
2022/06/06 13:13:52;;;;;;;12.15;6.35;;;;;;;;;;5050246;28;20053;-64
2022/06/06 13:16:32;;;;;;;11.50;6.93;;;;;;;;;;5049600;28;20509;-63
2022/06/06 13:19:23;;;;;;;10.52;6.47;;;;;;;;;;5049989;28;20045;-63
2022/06/06 13:22:02;;;;;;;10.57;6.47;;;;;;;;;;5050816;28;20478;-63
2022/06/06 13:25:05;;;;;;;10.60;6.05;;;;;;;;;;5050864;28;20488;-62
2022/06/06 13:27:53;;;;;;;11.73;6.82;;;;;;;;;;5057471;28;20532;-63
2022/06/06 13:30:22;;;;;;;8.70;5.95;;;;;;;;;;5061697;28;20482;-63
2022/06/06 13:33:00;;;;;;;13.82;6.22;;;;;;;;;;5069696;28;20041;-62
2022/06/06 13:35:39;;;;;;;10.48;7.15;;;;;;;;;;5069772;28;20498;-63
2022/06/06 13:38:21;;;;;;;10.95;6.85;;;;;;;;;;5069765;28;20098;-63
2022/06/06 13:41:09;;;;;;;12.63;6.70;;;;;;;;;;5069313;28;20098;-64
2022/06/06 13:43:58;;;;;;;11.23;6.88;;;;;;;;;;5069858;28;20433;-64
2022/06/06 13:46:39;;;;;;;8.30;6.10;;;;;;;;;;5071317;28;20048;-63
2022/06/06 13:49:32;;;;;;;8.38;5.70;;;;;;;;;;5073585;28;20135;-63
2022/06/06 13:52:14;;;;;;;10.05;6.18;;;;;;;;;;5073359;28;20049;-62
2022/06/06 13:54:41;;;;;;;10.15;6.30;;;;;;;;;;5073156;28;20048;-64
2022/06/06 13:57:32;;;;;;;26.67;14.30;;;;;;;;;;5073223;28;20149;-62
2022/06/06 14:00:10;;;;;;;12.85;7.75;;;;;;;;;;5055231;28;20517;-62
2022/06/06 14:02:47;;;;;;;9.88;5.80;;;;;;;;;;5053250;28;20074;-62
2022/06/06 14:05:30;;;;;;;11.25;7.60;;;;;;;;;;5052831;28;20099;-63
2022/06/06 14:08:10;;;;;;;8.98;6.18;;;;;;;;;;5052913;28;20106;-63
2022/06/06 14:10:48;;;;;;;;;;;;;;;;;;5053262;28;20107;-63
2022/06/06 14:13:22;;;;;;;;;;;;;;;;;;5053671;28;19978;-62
2022/06/06 14:15:49;;;;;;;;;;;;;;;;;;5053296;28;20240;-62
2022/06/06 14:18:19;;;;;;;;;;;;;;;;;;5054185;28;20483;-63
2022/06/06 14:20:48;;;;;;;;;;;;;;;;;;5053071;28;19924;-63
2022/06/06 14:23:22;;;;;;;;;;;;;;;;;;5053380;28;19921;-63
2022/06/06 14:25:50;;;;;;;;;;;;;;;;;;5052989;28;20344;-63
2022/06/06 14:28:20;;;;;;;;;;;;;;;;;;5053007;28;19932;-63
2022/06/06 14:30:46;;;;;;;;;;;;;;;;;;5053170;28;19921;-63
2022/06/06 14:33:21;;;;;;;;;;;;;;;;;;5053196;28;19983;-63
2022/06/06 14:35:48;;;;;;;;;;;;;;;;;;5053125;28;20343;-63
2022/06/06 14:38:26;;;;;;;;;;;;;;;;;;5053344;28;19921;-63
2022/06/06 14:40:54;;;;;;;;;;;;;;;;;;5052853;28;20285;-63
2022/06/06 14:43:24;;;;;;;;;;;;;;;;;;5052951;28;20293;-63
2022/06/06 14:45:54;;;;;;;;;;;;;;;;;;5053113;28;19921;-63
2022/06/06 14:48:32;;;;;;;;;;;;;;;;;;5052964;28;20417;-63
2022/06/06 14:51:00;;;;;;;;;;;;;;;;;;5052463;28;20332;-63
2022/06/06 14:53:28;;;;;;;;;;;;;;;;;;5052787;28;19932;-63
2022/06/06 14:55:56;;;;;;;;;;;;;;;;;;5052833;28;20184;-63
2022/06/06 14:58:26;;;;;;;;;;;;;;;;;;5052313;28;20008;-63
2022/06/06 15:00:55;;;;;;;;;;;;;;;;;;5052282;28;19935;-63
2022/06/06 15:03:32;;;;;;;;;;;;;;;;;;5052616;28;19921;-63
2022/06/06 15:06:05;;;;;;;;;;;;;;;;;;5052402;28;19921;-63
2022/06/06 15:08:34;;;;;;;;;;;;;;;;;;5052661;28;20345;-63
2022/06/06 15:11:03;;;;;;;;;;;;;;;;;;5052672;28;19925;-63
2022/06/06 15:13:31;;;;;;;;;;;;;;;;;;5052624;28;20301;-63
2022/06/06 15:16:02;;;;;;;;;;;;;;;;;;5052264;28;19925;-63
2022/06/06 15:18:30;;;;;;;;;;;;;;;;;;5052169;28;20278;-63
2022/06/06 15:20:57;;;;;;;;;;;;;;;;;;5051891;28;19924;-62
2022/06/06 15:23:26;;;;;;;;;;;;;;;;;;5051876;28;19920;-63
2022/06/06 15:25:59;;;;;;;;;;;;;;;;;;5051963;28;20305;-63
2022/06/06 15:28:32;;;;;;;;;;;;;;;;;;5051920;28;20473;-64
2022/06/06 15:31:04;;;;;;;;;;;;;;;;;;5042485;22;20336;-64
2022/06/06 15:33:36;;;;;;;;;;;;;;;;;;5012216;28;19922;-63
2022/06/06 15:36:07;;;;;;;;;;;;;;;;;;5012583;28;19922;-64
2022/06/06 15:38:41;;;;;;;;;;;;;;;;;;5012593;28;19967;-65
2022/06/06 15:41:13;;;;;;;;;;;;;;;;;;5011601;28;19926;-65
2022/06/06 15:43:47;;;;;;;;;;;;;;;;;;5012359;28;19925;-65
2022/06/06 15:46:19;;;;;;;;;;;;;;;;;;5012209;28;19921;-65
2022/06/06 15:48:50;;;;;;;;;;;;;;;;;;5011930;28;19925;-64
2022/06/06 15:51:22;;;;;;;;;;;;;;;;;;5011483;28;20582;-64
2022/06/06 15:54:04;;;;;;;;;;;;;;;;;;5012104;28;19976;-64
2022/06/06 15:56:37;;;;;;;;;;;;;;;;;;5012156;28;20041;-64
2022/06/06 15:59:18;;;;;;;;;;;;;;;;;;5001893;28;19969;-64
2022/06/06 16:01:46;;;;;;;;;;;;;;;;;;4992002;28;19922;-64
2022/06/06 16:04:19;;;;;;;;;;;;;;;;;;4992111;28;19976;-64
2022/06/06 16:06:48;;;;;;;;;;;;;;;;;;4992259;28;19930;-64
2022/06/06 16:09:19;;;;;;;;;;;;;;;;;;4991853;28;20337;-63
2022/06/06 16:11:51;;;;;;;;;;;;;;;;;;4992210;28;20004;-64
2022/06/06 16:14:33;;;;;;;;;;;;;;;;;;4992171;28;20274;-64
2022/06/06 16:17:01;;;;;;;;;;;;;;;;;;4992008;28;19928;-64
2022/06/06 16:19:33;;;;;;;;;;;;;;;;;;4991693;28;19928;-65
2022/06/06 16:22:02;;;;;;;;;;;;;;;;;;4990975;28;20000;-64
2022/06/06 16:24:36;;;;;;;;;;;;;;;;;;4991383;28;20413;-62
2022/06/06 16:27:08;;;;;;;;;;;;;;;;;;4991420;28;19961;-64
2022/06/06 16:29:38;;;;;;;;;;;;;;;;;;4993950;28;20382;-63